Time;durP1;ratioP1;P1;durP2;ratioP2;P2;SDS_P1;SDS_P2;PMS_P1;PMS_P2;Temp;Humidity;BMP_temperature;BMP_pressure;BME280_temperature;BME280_humidity;BME280_pressure;Samples;Min_cycle;Max_cycle;Signal;HPM_P1;HPM_P2
2021/09/16 00:01:33;;;;;;;6.75;1.10;;;;;;;15.94;69.61;101502.19;5063079;28;20022;-43
2021/09/16 00:03:58;;;;;;;7.50;1.50;;;;;;;15.91;69.88;101508.84;5052309;28;20484;-43
2021/09/16 00:06:24;;;;;;;6.70;1.10;;;;;;;15.86;70.22;101507.78;5066931;28;20035;-44
2021/09/16 00:08:49;;;;;;;5.47;1.20;;;;;;;15.79;69.76;101511.28;5072395;28;20391;-43
2021/09/16 00:11:14;;;;;;;5.28;1.45;;;;;;;15.74;69.66;101510.22;5057675;28;20028;-43
2021/09/16 00:13:40;;;;;;;4.93;1.00;;;;;;;15.73;69.61;101513.97;5056121;28;20052;-42
2021/09/16 00:16:05;;;;;;;4.43;1.13;;;;;;;15.73;69.60;101506.66;5061316;28;20120;-42
2021/09/16 00:18:31;;;;;;;5.78;1.10;;;;;;;15.70;69.40;101508.94;5063664;28;20032;-43
2021/09/16 00:20:57;;;;;;;9.50;1.35;;;;;;;15.67;69.78;101506.59;5062799;28;20075;-43
2021/09/16 00:23:22;;;;;;;5.22;0.90;;;;;;;15.65;69.89;101511.38;5056376;28;20044;-42
2021/09/16 00:25:47;;;;;;;10.02;1.30;;;;;;;15.61;70.05;101512.81;5049492;28;20060;-43
2021/09/16 00:28:13;;;;;;;7.30;1.20;;;;;;;15.67;69.78;101509.31;5055005;28;20064;-43
2021/09/16 00:30:38;;;;;;;9.95;1.25;;;;;;;15.61;70.39;101512.81;5066108;28;20137;-43
2021/09/16 00:33:03;;;;;;;4.05;0.82;;;;;;;15.59;69.92;101516.56;5056112;28;20048;-42
2021/09/16 00:35:29;;;;;;;10.57;1.55;;;;;;;15.56;69.87;101510.69;5054686;28;20017;-43
2021/09/16 00:37:54;;;;;;;8.35;1.20;;;;;;;15.57;69.18;101513.22;5068716;28;20025;-42
2021/09/16 00:40:19;;;;;;;6.07;1.10;;;;;;;15.59;69.40;101513.84;5054718;28;20060;-44
2021/09/16 00:42:45;;;;;;;2.55;1.10;;;;;;;15.63;69.50;101516.16;5057567;28;20056;-42
2021/09/16 00:45:11;;;;;;;4.10;1.15;;;;;;;15.62;69.60;101518.03;5050924;28;20028;-42
2021/09/16 00:47:44;;;;;;;6.43;1.15;;;;;;;15.66;69.61;101521.19;5066456;28;20032;-43
2021/09/16 00:50:11;;;;;;;7.60;1.30;;;;;;;15.66;69.85;101513.03;5062828;28;20032;-43
2021/09/16 00:52:38;;;;;;;9.37;1.37;;;;;;;15.61;70.10;101513.63;5061322;28;20032;-42
2021/09/16 00:55:04;;;;;;;20.05;1.77;;;;;;;15.59;70.33;101518.44;5046776;28;20313;-41
2021/09/16 00:57:30;;;;;;;6.65;0.98;;;;;;;15.65;69.49;101516.81;5058263;28;20024;-44
2021/09/16 00:59:56;;;;;;;8.38;1.20;;;;;;;15.69;69.20;101518.09;5057635;28;20047;-42
2021/09/16 01:02:21;;;;;;;6.07;1.15;;;;;;;15.68;69.33;101502.84;5054737;28;20395;-42
2021/09/16 01:04:47;;;;;;;6.13;1.40;;;;;;;15.67;69.02;101503.88;5054558;28;20032;-43
2021/09/16 01:07:14;;;;;;;6.95;1.10;;;;;;;15.64;69.23;101512.41;5052704;28;20434;-44
2021/09/16 01:09:41;;;;;;;4.53;0.93;;;;;;;15.70;68.85;101509.78;5053656;28;20065;-43
2021/09/16 01:12:06;;;;;;;5.70;1.60;;;;;;;15.71;68.79;101514.16;5063755;28;20040;-44
2021/09/16 01:14:31;;;;;;;4.72;0.90;;;;;;;15.70;69.03;101517.91;5036920;28;20024;-43
2021/09/16 01:16:58;;;;;;;5.18;1.02;;;;;;;15.71;68.95;101514.16;5063611;28;20107;-42
2021/09/16 01:19:23;;;;;;;4.60;0.90;;;;;;;15.67;69.42;101512.88;5071935;28;20020;-43
2021/09/16 01:21:49;;;;;;;4.85;1.20;;;;;;;15.68;70.04;101506.38;5062226;28;20036;-43
2021/09/16 01:24:15;;;;;;;9.05;1.20;;;;;;;15.68;70.44;101514.53;5044637;28;20386;-43
2021/09/16 01:26:42;;;;;;;7.97;1.38;;;;;;;15.72;69.89;101515.84;5062521;28;20090;-42
2021/09/16 01:29:08;;;;;;;4.47;1.05;;;;;;;15.69;69.95;101513.53;5065880;28;20391;-43
2021/09/16 01:31:36;;;;;;;4.85;1.13;;;;;;;15.74;69.72;101519.19;5064362;28;20020;-42
2021/09/16 01:34:04;;;;;;;8.60;1.10;;;;;;;15.79;69.77;101515.88;5048765;28;20036;-43
2021/09/16 01:36:30;;;;;;;3.08;1.00;;;;;;;15.83;69.33;101516.34;5061622;28;20124;-42
2021/09/16 01:38:55;;;;;;;8.90;1.13;;;;;;;15.83;69.38;101519.88;5060317;28;20551;-42
2021/09/16 01:41:20;;;;;;;8.07;1.15;;;;;;;15.87;68.87;101521.13;5061109;28;20021;-43
2021/09/16 01:43:46;;;;;;;2.70;1.10;;;;;;;15.92;69.05;101517.81;5043576;28;20021;-41
2021/09/16 01:46:11;;;;;;;9.00;1.23;;;;;;;15.87;69.92;101521.13;5069144;28;20030;-42
2021/09/16 01:48:36;;;;;;;6.15;1.15;;;;;;;15.85;71.35;101525.94;5055384;28;20047;-42
2021/09/16 01:51:02;;;;;;;7.63;1.63;;;;;;;15.78;72.75;101525.06;5061062;28;20120;-41
2021/09/16 01:53:27;;;;;;;3.40;1.00;;;;;;;15.72;74.62;101520.44;5056781;28;20020;-42
2021/09/16 01:55:52;;;;;;;10.05;1.40;;;;;;;15.56;76.24;101522.41;5064891;28;20037;-42
2021/09/16 01:58:18;;;;;;;9.00;1.42;;;;;;;15.46;76.56;101526.50;5058237;28;20036;-42
2021/09/16 02:00:43;;;;;;;4.28;1.42;;;;;;;15.33;77.44;101527.22;5066480;28;20032;-43
2021/09/16 02:03:08;;;;;;;6.13;1.25;;;;;;;15.27;78.65;101528.84;5055019;28;20025;-42
2021/09/16 02:05:34;;;;;;;7.13;1.00;;;;;;;15.20;78.22;101522.53;5055099;28;20146;-43
2021/09/16 02:07:59;;;;;;;11.18;1.10;;;;;;;15.13;79.17;101527.06;5064907;28;20104;-43
2021/09/16 02:10:24;;;;;;;5.55;1.20;;;;;;;15.11;78.51;101532.69;5067382;28;20062;-43
2021/09/16 02:12:49;;;;;;;8.70;1.63;;;;;;;15.09;78.94;101526.63;5050707;28;20028;-43
2021/09/16 02:15:15;;;;;;;4.65;1.15;;;;;;;15.04;80.19;101534.50;5049498;28;20075;-43
2021/09/16 02:17:40;;;;;;;12.20;1.20;;;;;;;15.08;78.51;101526.78;5056590;28;20051;-42
2021/09/16 02:20:06;;;;;;;15.13;1.60;;;;;;;15.09;78.40;101534.75;5055470;28;20021;-42
2021/09/16 02:22:31;;;;;;;7.47;1.00;;;;;;;15.08;77.35;101526.78;5067422;28;20453;-43
2021/09/16 02:24:57;;;;;;;10.00;1.23;;;;;;;15.10;76.06;101538.28;5037084;28;20021;-42
2021/09/16 02:27:22;;;;;;;7.50;1.17;;;;;;;15.15;76.29;101531.25;5059697;28;20392;-43
2021/09/16 02:29:47;;;;;;;5.13;1.10;;;;;;;15.16;76.30;101540.22;5061501;28;20523;-43
2021/09/16 02:32:13;;;;;;;8.48;1.40;;;;;;;15.17;75.44;101532.94;5062733;28;20028;-43
2021/09/16 02:34:38;;;;;;;6.43;1.25;;;;;;;15.14;75.93;101536.88;5053322;28;20103;-43
2021/09/16 02:37:04;;;;;;;8.38;1.13;;;;;;;15.11;75.94;101535.41;5054204;28;20044;-42
2021/09/16 02:39:29;;;;;;;5.15;1.08;;;;;;;15.06;75.11;101543.28;5063038;28;20464;-42
2021/09/16 02:41:54;;;;;;;4.95;1.00;;;;;;;15.04;74.64;101539.91;5062265;28;20074;-42
2021/09/16 02:44:19;;;;;;;9.25;1.10;;;;;;;15.01;72.52;101540.31;5050470;28;20379;-41
2021/09/16 02:46:45;;;;;;;8.48;1.00;;;;;;;15.00;73.14;101537.78;5067620;28;20459;-42
2021/09/16 02:49:10;;;;;;;7.78;1.30;;;;;;;14.94;73.39;101533.97;5056525;28;20491;-42
2021/09/16 02:51:35;;;;;;;6.78;0.77;;;;;;;14.90;72.19;101538.09;5055346;28;20028;-42
2021/09/16 02:54:01;;;;;;;3.67;0.90;;;;;;;14.89;72.76;101539.97;5053122;28;20027;-41
2021/09/16 02:56:26;;;;;;;3.95;0.90;;;;;;;14.86;72.93;101542.25;5061495;28;20352;-43
2021/09/16 02:58:52;;;;;;;8.95;1.13;;;;;;;14.84;73.16;101536.16;5064693;28;20025;-43
2021/09/16 03:01:17;;;;;;;4.75;1.10;;;;;;;14.83;73.67;101531.78;5056674;28;20111;-42
2021/09/16 03:03:42;;;;;;;5.53;0.88;;;;;;;14.83;74.38;101537.22;5057397;28;20029;-43
2021/09/16 03:06:08;;;;;;;7.53;1.02;;;;;;;14.85;73.34;101535.97;5057249;28;20029;-42
2021/09/16 03:08:33;;;;;;;4.72;1.23;;;;;;;14.84;73.54;101544.28;5061963;28;20048;-42
2021/09/16 03:10:58;;;;;;;7.45;1.13;;;;;;;14.78;74.65;101547.78;5062564;28;20088;-42
2021/09/16 03:13:23;;;;;;;4.50;1.08;;;;;;;14.76;74.38;101552.56;5053366;28;20060;-43
2021/09/16 03:15:49;;;;;;;11.85;1.20;;;;;;;14.76;74.22;101547.13;5057815;28;20024;-42
2021/09/16 03:18:14;;;;;;;6.80;1.20;;;;;;;14.76;74.64;101547.13;5062874;28;20029;-43
2021/09/16 03:20:39;;;;;;;5.25;1.02;;;;;;;14.71;74.48;101545.00;5060869;28;20501;-43
2021/09/16 03:23:05;;;;;;;9.40;1.30;;;;;;;14.73;74.82;101552.94;5054220;28;20101;-43
2021/09/16 03:25:30;;;;;;;6.03;1.02;;;;;;;14.75;74.18;101548.19;5050092;28;20032;-43
2021/09/16 03:27:55;;;;;;;3.95;0.98;;;;;;;14.73;73.54;101556.47;5061428;28;20078;-43
2021/09/16 03:30:21;;;;;;;7.90;1.23;;;;;;;14.74;73.28;101555.44;5056697;28;20028;-43
2021/09/16 03:32:46;;;;;;;3.03;1.15;;;;;;;14.75;72.70;101557.13;5058026;28;20032;-42
2021/09/16 03:35:12;;;;;;;8.27;1.73;;;;;;;14.73;72.94;101561.06;5053204;28;20032;-43
2021/09/16 03:37:37;;;;;;;6.47;1.65;;;;;;;14.77;72.16;101562.34;5074223;28;20035;-44
2021/09/16 03:40:03;;;;;;;3.78;1.15;;;;;;;14.77;72.37;101567.75;5065029;28;20029;-43
2021/09/16 03:42:31;;;;;;;7.55;1.20;;;;;;;14.77;72.30;101565.91;5060619;28;20472;-42
2021/09/16 03:44:56;;;;;;;7.03;1.27;;;;;;;14.77;73.24;101559.63;5040186;28;20029;-42
2021/09/16 03:47:22;;;;;;;7.75;1.00;;;;;;;14.75;73.45;101564.44;5058081;28;20112;-42
2021/09/16 03:49:47;;;;;;;5.95;1.38;;;;;;;14.78;72.57;101561.34;5060780;28;20058;-42
2021/09/16 03:52:12;;;;;;;6.63;1.00;;;;;;;14.81;72.51;101561.78;5065427;28;20114;-42
2021/09/16 03:54:38;;;;;;;7.15;1.20;;;;;;;14.87;72.67;101560.16;5044846;28;20067;-43
2021/09/16 03:57:04;;;;;;;5.78;0.95;;;;;;;14.91;73.13;101566.88;5069898;28;20494;-43
2021/09/16 03:59:30;;;;;;;4.07;1.00;;;;;;;14.99;72.54;101566.75;5062624;28;20029;-43
2021/09/16 04:01:56;;;;;;;10.13;1.30;;;;;;;15.06;71.98;101564.97;5065934;28;20025;-43
2021/09/16 04:04:21;;;;;;;4.45;1.17;;;;;;;15.13;72.91;101559.59;5043543;28;20119;-42
2021/09/16 04:06:46;;;;;;;3.75;1.30;;;;;;;15.16;73.55;101567.31;5062000;28;20037;-43
2021/09/16 04:09:12;;;;;;;5.70;1.20;;;;;;;15.20;74.11;101562.38;5063351;28;20444;-43
2021/09/16 04:11:37;;;;;;;7.85;1.35;;;;;;;15.18;74.48;101561.72;5066752;28;20494;-43
2021/09/16 04:14:03;;;;;;;10.95;1.70;;;;;;;15.22;74.77;101571.13;5044609;28;20028;-42
2021/09/16 04:16:28;;;;;;;6.40;1.10;;;;;;;15.22;74.63;101572.00;5069828;28;20074;-43
2021/09/16 04:18:53;;;;;;;4.70;1.17;;;;;;;15.21;74.66;101569.47;5062197;28;20041;-43
2021/09/16 04:21:19;;;;;;;5.20;1.10;;;;;;;15.22;74.77;101579.25;5063763;28;20104;-43
2021/09/16 04:23:44;;;;;;;12.02;1.08;;;;;;;15.25;74.62;101574.31;5050532;28;20090;-40
2021/09/16 04:26:09;;;;;;;8.32;1.33;;;;;;;15.25;73.75;101573.47;5058536;28;20029;-43
2021/09/16 04:28:35;;;;;;;9.80;1.55;;;;;;;15.27;72.00;101569.53;5065945;28;20398;-43
2021/09/16 04:31:00;;;;;;;9.88;0.90;;;;;;;15.27;72.48;101574.97;5062616;28;20024;-42
2021/09/16 04:33:25;;;;;;;4.95;1.20;;;;;;;15.26;71.70;101575.97;5054714;28;20021;-43
2021/09/16 04:35:51;;;;;;;7.28;1.67;;;;;;;15.25;71.73;101576.19;5058306;28;20407;-43
2021/09/16 04:38:16;;;;;;;5.10;1.00;;;;;;;15.23;70.68;101576.38;5062052;28;20396;-43
2021/09/16 04:40:42;;;;;;;7.07;1.25;;;;;;;15.25;70.90;101574.31;5055685;28;20447;-43
2021/09/16 04:43:08;;;;;;;5.40;1.35;;;;;;;15.28;70.95;101581.22;5061231;28;20120;-42
2021/09/16 04:45:33;;;;;;;5.97;1.15;;;;;;;15.28;70.99;101579.34;5048683;28;20111;-42
2021/09/16 04:47:59;;;;;;;2.88;1.15;;;;;;;15.31;70.71;101575.41;5066142;28;20060;-43
2021/09/16 04:50:24;;;;;;;10.13;1.02;;;;;;;15.33;70.42;101573.34;5072407;28;20540;-43
2021/09/16 04:52:49;;;;;;;2.67;1.30;;;;;;;15.39;70.31;101575.25;5060145;28;20612;-41
2021/09/16 04:55:15;;;;;;;4.13;0.95;;;;;;;15.37;70.70;101578.16;5058870;28;20036;-42
2021/09/16 04:57:40;;;;;;;5.65;1.40;;;;;;;15.43;70.07;101584.69;5053751;28;20084;-44
2021/09/16 05:00:07;;;;;;;8.82;1.40;;;;;;;15.44;70.37;101578.22;5063754;28;20463;-43
2021/09/16 05:02:33;;;;;;;6.70;1.17;;;;;;;15.49;70.67;101585.78;5061133;28;20392;-43
2021/09/16 05:04:58;;;;;;;7.50;1.52;;;;;;;15.49;70.78;101578.47;5044937;28;20036;-43
2021/09/16 05:07:23;;;;;;;9.63;1.17;;;;;;;15.50;71.36;101587.44;5058689;28;20025;-42
2021/09/16 05:09:49;;;;;;;9.02;1.77;;;;;;;15.54;71.27;101594.16;5066069;28;20106;-42
2021/09/16 05:12:14;;;;;;;3.78;1.05;;;;;;;15.54;71.99;101591.47;5057689;28;20031;-43
2021/09/16 05:14:40;;;;;;;7.13;1.20;;;;;;;15.54;72.27;101595.00;5050964;28;20036;-42
2021/09/16 05:17:05;;;;;;;9.60;1.50;;;;;;;15.54;72.81;101592.28;5052993;28;20029;-44
2021/09/16 05:19:30;;;;;;;10.63;1.33;;;;;;;15.50;72.81;101593.69;5066930;28;20387;-43
2021/09/16 05:21:56;;;;;;;11.30;1.40;;;;;;;15.52;72.76;101591.63;5055676;28;20040;-42
2021/09/16 05:24:21;;;;;;;4.45;1.10;;;;;;;15.53;73.20;101595.19;5053314;28;20029;-43
2021/09/16 05:26:47;;;;;;;7.72;1.98;;;;;;;15.51;72.95;101600.00;5060412;28;20031;-42
2021/09/16 05:29:13;;;;;;;7.18;1.67;;;;;;;15.47;72.92;101602.25;5063065;28;20364;-42
2021/09/16 05:31:38;;;;;;;9.68;1.75;;;;;;;15.45;72.54;101595.31;5057552;28;20021;-42
2021/09/16 05:34:04;;;;;;;7.50;1.40;;;;;;;15.40;73.14;101601.34;5040429;28;20668;-43
2021/09/16 05:36:29;;;;;;;7.88;1.85;;;;;;;15.32;73.16;101596.06;5058140;28;20035;-42
2021/09/16 05:38:55;;;;;;;8.52;1.17;;;;;;;15.26;72.71;101607.69;5064272;28;20021;-42
2021/09/16 05:41:20;;;;;;;7.45;1.52;;;;;;;15.21;72.76;101604.72;5056240;28;20028;-43
2021/09/16 05:43:45;;;;;;;9.15;1.55;;;;;;;15.17;72.73;101606.97;5050475;28;20504;-40
2021/09/16 05:46:11;;;;;;;5.25;1.30;;;;;;;15.11;73.32;101616.72;5060352;28;20029;-42
2021/09/16 05:48:36;;;;;;;7.63;1.48;;;;;;;15.11;72.56;101622.16;5059473;28;20110;-42
2021/09/16 05:51:01;;;;;;;17.40;2.05;;;;;;;15.12;72.50;101623.81;5061387;28;20020;-42
2021/09/16 05:53:27;;;;;;;7.72;2.10;;;;;;;15.11;73.58;101618.59;5050063;28;20024;-42
2021/09/16 05:55:52;;;;;;;8.63;1.70;;;;;;;15.09;73.00;101624.22;5062695;28;20020;-42
2021/09/16 05:58:17;;;;;;;10.85;1.58;;;;;;;15.14;72.25;101621.75;5063153;28;20119;-44
2021/09/16 06:00:43;;;;;;;7.88;1.45;;;;;;;15.15;72.15;101628.03;5051751;28;20033;-42
2021/09/16 06:03:08;;;;;;;17.13;2.17;;;;;;;15.17;71.97;101625.97;5050662;28;20021;-43
2021/09/16 06:05:34;;;;;;;4.13;1.60;;;;;;;15.21;71.95;101635.38;5048301;28;20028;-44
2021/09/16 06:07:59;;;;;;;7.60;1.60;;;;;;;15.23;71.48;101629.78;5058704;28;20029;-42
2021/09/16 06:10:25;;;;;;;7.22;1.98;;;;;;;15.25;71.73;101633.13;5061727;28;20392;-43
2021/09/16 06:12:50;;;;;;;7.15;1.63;;;;;;;15.25;71.71;101638.56;5052071;28;20466;-43
2021/09/16 06:15:15;;;;;;;5.43;1.70;;;;;;;15.36;71.04;101646.16;5045810;28;20036;-42
2021/09/16 06:17:41;;;;;;;8.00;1.33;;;;;;;15.37;71.08;101642.41;5052158;28;20033;-43
2021/09/16 06:20:07;;;;;;;5.88;1.38;;;;;;;15.44;70.97;101642.50;5051546;28;20021;-43
2021/09/16 06:22:33;;;;;;;6.90;2.03;;;;;;;15.46;71.03;101645.84;5061189;28;20504;-43
2021/09/16 06:24:58;;;;;;;9.30;1.50;;;;;;;15.47;70.78;101642.94;5055539;28;20035;-43
2021/09/16 06:27:24;;;;;;;6.40;1.58;;;;;;;15.53;71.05;101644.88;5060687;28;20040;-43
2021/09/16 06:29:49;;;;;;;8.15;1.80;;;;;;;15.55;71.52;101645.50;5062715;28;20025;-43
2021/09/16 06:32:14;;;;;;;9.48;1.67;;;;;;;15.60;71.00;101639.50;5053233;28;20082;-43
2021/09/16 06:34:40;;;;;;;16.77;1.80;;;;;;;15.68;70.94;101652.09;5045899;28;20168;-43
2021/09/16 06:37:05;;;;;;;16.75;1.70;;;;;;;15.98;70.67;101648.19;5058339;28;20024;-42
2021/09/16 06:39:30;;;;;;;5.63;1.38;;;;;;;16.81;68.49;101645.53;5056610;28;20025;-43
2021/09/16 06:41:56;;;;;;;5.95;1.65;;;;;;;18.13;63.21;101643.97;5056507;28;20020;-42
2021/09/16 06:44:21;;;;;;;7.22;1.92;;;;;;;19.23;59.41;101654.06;5042256;28;20033;-44
2021/09/16 06:46:47;;;;;;;6.95;1.60;;;;;;;19.63;57.39;101660.06;5052594;28;20025;-43
2021/09/16 06:49:12;;;;;;;11.40;1.90;;;;;;;20.21;55.59;101667.13;5059053;28;20029;-43
2021/09/16 06:51:37;;;;;;;10.15;1.98;;;;;;;20.66;54.18;101664.13;5060151;28;20032;-43
2021/09/16 06:54:03;;;;;;;7.80;1.63;;;;;;;20.89;54.99;101662.59;5049899;28;20029;-43
2021/09/16 06:56:29;;;;;;;10.07;1.67;;;;;;;21.47;52.74;101660.09;5060144;28;20056;-43
2021/09/16 06:58:55;;;;;;;6.35;1.48;;;;;;;22.20;51.53;101657.22;5062976;28;20039;-43
2021/09/16 07:01:20;;;;;;;8.00;1.60;;;;;;;22.47;50.84;101658.34;5062228;28;20029;-44
2021/09/16 07:03:46;;;;;;;7.47;1.90;;;;;;;22.71;50.61;101655.56;5050553;28;20062;-43
2021/09/16 07:06:12;;;;;;;11.82;1.70;;;;;;;23.09;49.43;101665.09;5057395;28;20430;-43
2021/09/16 07:08:37;;;;;;;6.80;1.65;;;;;;;23.70;47.55;101666.22;5065401;28;20025;-44
2021/09/16 07:11:03;;;;;;;5.70;2.08;;;;;;;23.80;47.61;101669.16;5065468;28;20021;-43
2021/09/16 07:13:28;;;;;;;6.50;1.55;;;;;;;23.29;47.59;101670.16;5061307;28;20021;-43
2021/09/16 07:15:53;;;;;;;7.57;1.48;;;;;;;22.12;50.36;101672.09;5055269;28;20086;-43
2021/09/16 07:18:19;;;;;;;9.40;1.70;;;;;;;21.03;53.19;101669.56;5071904;28;20024;-42
2021/09/16 07:20:45;;;;;;;5.72;1.60;;;;;;;20.45;54.96;101672.78;5063957;28;20041;-42
2021/09/16 07:23:10;;;;;;;4.22;1.40;;;;;;;21.12;54.11;101672.81;5053013;28;20410;-42
2021/09/16 07:25:35;;;;;;;7.78;1.38;;;;;;;22.11;51.09;101671.22;5053326;28;20036;-45
2021/09/16 07:28:01;;;;;;;8.23;1.30;;;;;;;22.74;48.52;101674.28;5069226;28;20033;-43
2021/09/16 07:30:26;;;;;;;7.57;1.30;;;;;;;23.55;47.71;101680.50;5060787;28;20040;-44
2021/09/16 07:32:51;;;;;;;3.67;1.20;;;;;;;23.40;47.27;101683.81;5058674;28;20115;-43
2021/09/16 07:35:17;;;;;;;7.60;1.92;;;;;;;23.51;47.95;101682.06;5046717;28;20100;-43
2021/09/16 07:37:42;;;;;;;8.20;1.55;;;;;;;23.68;47.64;101684.84;5070853;28;20085;-44
2021/09/16 07:40:08;;;;;;;5.32;1.27;;;;;;;24.51;46.59;101682.31;5062659;28;20102;-44
2021/09/16 07:42:34;;;;;;;5.55;1.60;;;;;;;24.88;44.42;101690.78;5069971;28;20082;-43
2021/09/16 07:44:59;;;;;;;5.80;1.20;;;;;;;24.79;43.23;101688.72;5043623;28;20028;-44
2021/09/16 07:47:24;;;;;;;6.05;1.45;;;;;;;24.63;43.55;101691.28;5065220;28;20024;-44
2021/09/16 07:49:50;;;;;;;2.60;1.00;;;;;;;25.66;42.11;101681.38;5065021;28;20108;-44
2021/09/16 07:52:15;;;;;;;10.02;1.60;;;;;;;25.40;41.71;101686.66;5067231;28;20036;-44
2021/09/16 07:54:40;;;;;;;9.13;1.58;;;;;;;24.99;44.12;101691.72;5058920;28;20113;-44
2021/09/16 07:57:06;;;;;;;11.63;1.60;;;;;;;25.26;43.55;101699.19;5065984;28;20043;-44
2021/09/16 07:59:31;;;;;;;5.38;1.40;;;;;;;25.31;42.82;101688.22;5058893;28;20056;-43
2021/09/16 08:01:57;;;;;;;3.33;1.02;;;;;;;25.82;40.75;101699.72;5061864;28;20040;-44
2021/09/16 08:04:23;;;;;;;5.45;1.15;;;;;;;25.67;42.08;101696.81;5050201;28;20125;-44
2021/09/16 08:06:48;;;;;;;4.88;1.13;;;;;;;25.79;42.57;101692.78;5065497;28;20380;-43
2021/09/16 08:09:13;;;;;;;5.53;1.13;;;;;;;26.52;42.37;101705.22;5065456;28;20410;-44
2021/09/16 08:11:39;;;;;;;5.55;1.17;;;;;;;26.53;40.78;101704.94;5059942;28;20079;-44
2021/09/16 08:14:05;;;;;;;5.40;1.42;;;;;;;26.39;40.96;101710.06;5055497;28;20035;-43
2021/09/16 08:16:31;;;;;;;7.53;1.05;;;;;;;26.41;39.80;101710.66;5055093;28;20100;-44
2021/09/16 08:18:56;;;;;;;5.35;1.25;;;;;;;25.58;41.61;101705.56;5070333;28;20108;-42
2021/09/16 08:21:22;;;;;;;3.35;1.00;;;;;;;25.57;41.81;101701.16;5062506;28;20353;-43
2021/09/16 08:23:48;;;;;;;6.38;1.33;;;;;;;25.72;42.03;101707.88;5053465;28;20151;-41
2021/09/16 08:26:13;;;;;;;5.70;1.20;;;;;;;25.90;41.80;101709.44;5056232;28;20546;-43
2021/09/16 08:28:39;;;;;;;3.08;1.30;;;;;;;25.51;42.83;101718.72;5057270;28;20040;-43
2021/09/16 08:31:06;;;;;;;4.30;1.10;;;;;;;25.39;43.13;101713.38;5061948;28;20032;-42
2021/09/16 08:33:31;;;;;;;;;;;;;;;25.42;42.44;101725.81;5061158;28;20070;-43
2021/09/16 08:35:57;;;;;;;8.13;1.53;;;;;;;25.68;42.84;101723.31;5055038;28;19916;-43
2021/09/16 08:38:22;;;;;;;4.85;1.05;;;;;;;26.71;39.31;101714.69;5063930;28;20028;-43
2021/09/16 08:40:48;;;;;;;8.68;1.27;;;;;;;26.20;41.63;101719.91;5072797;28;20383;-44
2021/09/16 08:43:14;;;;;;;8.00;1.45;;;;;;;25.83;41.93;101721.50;5050536;28;20119;-43
2021/09/16 08:45:39;;;;;;;2.28;1.00;;;;;;;25.79;42.51;101725.88;5052029;28;20120;-43
2021/09/16 08:48:05;;;;;;;3.50;1.20;;;;;;;26.19;42.81;101719.03;5066499;28;20037;-43
2021/09/16 08:50:31;;;;;;;6.35;1.50;;;;;;;26.22;41.63;101723.19;5057004;28;20352;-44
2021/09/16 08:52:56;;;;;;;7.28;1.23;;;;;;;26.58;41.76;101731.75;5060805;28;20413;-43
2021/09/16 08:55:22;;;;;;;2.47;1.10;;;;;;;27.06;38.91;101733.31;5054031;28;20171;-43
2021/09/16 08:57:54;;;;;;;5.60;1.27;;;;;;;26.69;40.36;101730.69;5064817;28;20028;-43
2021/09/16 09:00:19;;;;;;;4.15;1.08;;;;;;;27.22;39.91;101736.97;5062009;28;20287;-43
2021/09/16 09:02:46;;;;;;;3.65;1.38;;;;;;;27.36;38.82;101740.91;5058936;28;20115;-43
2021/09/16 09:05:12;;;;;;;6.03;1.40;;;;;;;27.47;39.23;101743.69;5047433;28;20047;-43
2021/09/16 09:07:42;;;;;;;6.00;1.48;;;;;;;27.23;39.90;101737.84;5054886;28;20024;-42
2021/09/16 09:10:10;;;;;;;6.75;1.27;;;;;;;27.36;38.86;101738.16;5068063;28;20433;-44
2021/09/16 09:12:38;;;;;;;7.32;1.48;;;;;;;27.02;38.97;101739.69;5060151;28;20040;-41
2021/09/16 09:15:05;;;;;;;2.50;1.15;;;;;;;26.59;40.07;101725.94;5053823;28;20490;-43
2021/09/16 09:17:33;;;;;;;4.78;1.23;;;;;;;25.66;42.46;101728.25;5055062;28;20032;-43
2021/09/16 09:20:01;;;;;;;7.43;1.40;;;;;;;24.92;44.40;101732.38;5066211;28;20054;-44
2021/09/16 09:22:35;;;;;;;3.33;1.25;;;;;;;24.62;44.34;101732.81;5061742;28;20140;-43
2021/09/16 09:25:09;;;;;;;2.72;0.95;;;;;;;24.29;44.68;101729.84;5044708;28;20017;-43
2021/09/16 09:27:46;;;;;;;3.85;1.65;;;;;;;24.72;44.33;101728.28;5062867;28;20021;-43
2021/09/16 09:30:17;;;;;;;4.65;1.15;;;;;;;24.77;43.30;101729.44;5069925;28;20119;-43
2021/09/16 09:32:50;;;;;;;4.93;1.10;;;;;;;24.36;44.19;101723.34;5061570;28;20036;-43
2021/09/16 09:35:28;;;;;;;3.65;0.90;;;;;;;23.47;46.50;101726.81;5047303;28;20473;-42
2021/09/16 09:37:54;;;;;;;3.90;0.95;;;;;;;23.40;46.01;101727.75;5064031;28;20052;-44
2021/09/16 09:40:33;;;;;;;5.23;1.50;;;;;;;23.18;47.04;101735.03;5056844;28;20044;-43
2021/09/16 09:43:23;;;;;;;2.55;1.13;;;;;;;22.71;48.99;101727.72;5042409;28;20044;-42
2021/09/16 09:46:03;;;;;;;5.32;0.93;;;;;;;22.26;49.67;101733.03;5056676;28;20072;-43
2021/09/16 09:48:29;;;;;;;4.30;1.10;;;;;;;22.00;50.26;101735.13;5059260;28;20081;-43
2021/09/16 09:50:55;;;;;;;7.93;1.08;;;;;;;21.82;51.32;101732.47;5053511;28;20115;-42
2021/09/16 09:53:21;;;;;;;4.45;0.93;;;;;;;21.60;52.52;101729.44;5055958;28;20024;-41
2021/09/16 09:55:47;;;;;;;5.63;1.35;;;;;;;21.41;53.22;101740.47;5050860;28;20051;-43
2021/09/16 09:58:12;;;;;;;2.25;1.02;;;;;;;21.31;52.00;101734.66;5066787;28;20029;-43
2021/09/16 10:00:38;;;;;;;3.63;0.90;;;;;;;21.37;52.52;101732.91;5053240;28;20012;-43
2021/09/16 10:03:04;;;;;;;4.03;1.08;;;;;;;21.36;52.19;101739.47;5063780;28;20484;-44
2021/09/16 10:05:37;;;;;;;1.67;0.93;;;;;;;21.44;52.31;101733.69;5054403;28;20483;-43
2021/09/16 10:08:09;;;;;;;2.40;1.02;;;;;;;21.42;53.37;101742.13;5058718;28;20033;-43
2021/09/16 10:10:55;;;;;;;3.08;1.20;;;;;;;21.50;52.31;101742.88;5070151;28;20146;-43
2021/09/16 10:13:21;;;;;;;2.55;0.98;;;;;;;21.41;52.33;101739.63;5048455;28;20032;-43
2021/09/16 10:15:52;;;;;;;6.88;1.15;;;;;;;21.49;52.15;101731.09;5048458;28;20029;-44
2021/09/16 10:18:18;;;;;;;3.47;1.10;;;;;;;21.45;53.17;101730.69;5048906;28;20028;-43
2021/09/16 10:20:45;;;;;;;1.92;0.98;;;;;;;21.30;52.24;101729.41;5063268;28;20025;-43
2021/09/16 10:23:11;;;;;;;2.10;1.30;;;;;;;21.12;51.34;101733.88;5056783;28;20037;-43
2021/09/16 10:25:47;;;;;;;8.95;3.42;;;;;;;20.97;52.29;101730.69;5046830;28;20021;-44
2021/09/16 10:28:13;;;;;;;3.20;1.13;;;;;;;21.00;53.15;101736.53;5058926;28;20055;-42
2021/09/16 10:30:45;;;;;;;2.05;1.00;;;;;;;21.01;53.82;101734.63;5066519;28;20483;-41
2021/09/16 10:33:15;;;;;;;6.65;1.63;;;;;;;21.08;53.82;101731.81;5048805;28;20064;-44
2021/09/16 10:35:58;;;;;;;6.22;1.73;;;;;;;21.16;53.87;101740.53;5057296;28;20352;-41
2021/09/16 10:38:30;;;;;;;5.65;1.23;;;;;;;21.22;54.04;101736.91;5052724;28;20033;-43
2021/09/16 10:41:15;;;;;;;3.05;1.23;;;;;;;21.27;52.29;101742.53;5063583;28;20040;-44
2021/09/16 10:43:42;;;;;;;3.53;1.17;;;;;;;21.33;53.82;101745.38;5047662;28;20029;-43
2021/09/16 10:46:23;;;;;;;5.93;1.33;;;;;;;21.29;54.36;101738.72;5051149;28;20471;-42
2021/09/16 10:48:48;;;;;;;4.65;1.10;;;;;;;21.33;54.57;101737.16;5059712;28;20043;-43
2021/09/16 10:51:14;;;;;;;4.43;1.10;;;;;;;21.43;55.01;101743.81;5062272;28;20434;-43
2021/09/16 10:53:45;;;;;;;2.08;1.20;;;;;;;21.46;54.07;101746.06;5050583;28;20036;-44
2021/09/16 10:56:29;;;;;;;2.88;1.08;;;;;;;21.38;53.32;101734.59;5057745;28;20035;-44
2021/09/16 10:58:55;;;;;;;2.25;1.05;;;;;;;21.27;52.92;101739.78;5063431;28;20040;-44
2021/09/16 11:01:59;;;;;;;2.58;1.10;;;;;;;21.18;53.45;101741.16;5071028;28;20044;-44
2021/09/16 11:04:25;;;;;;;3.03;1.25;;;;;;;21.35;54.06;101746.81;5050483;28;20098;-45
2021/09/16 11:06:51;;;;;;;4.72;1.55;;;;;;;21.37;54.55;101741.94;5060181;28;20082;-43
2021/09/16 11:09:27;;;;;;;3.33;1.92;;;;;;;21.41;54.63;101748.69;5067872;28;20433;-44
2021/09/16 11:11:56;;;;;;;6.05;2.38;;;;;;;21.47;54.47;101744.16;5066597;28;20028;-44
2021/09/16 11:14:26;;;;;;;4.97;2.38;;;;;;;21.55;54.76;101737.53;5056507;28;20142;-43
2021/09/16 11:16:53;;;;;;;5.07;2.45;;;;;;;21.47;56.12;101738.69;5061021;28;20028;-42
2021/09/16 11:19:18;;;;;;;5.80;2.97;;;;;;;21.66;55.80;101744.94;5055182;28;20032;-43
2021/09/16 11:21:43;;;;;;;9.02;3.40;;;;;;;21.99;54.80;101744.44;5062414;28;20081;-43